Time;durP1;ratioP1;P1;durP2;ratioP2;P2;SDS_P1;SDS_P2;PMS_P1;PMS_P2;Temp;Humidity;BMP_temperature;BMP_pressure;BME280_temperature;BME280_humidity;BME280_pressure;Samples;Min_cycle;Max_cycle;Signal;HPM_P1;HPM_P2
2023/07/18 00:00:18;;;;;;;7.78;3.50;;;;;;;13.73;100.00;101704.78;5019411;28;20222;-49
2023/07/18 00:02:44;;;;;;;9.63;3.58;;;;;;;13.79;100.00;101705.44;5017355;28;20207;-50
2023/07/18 00:05:14;;;;;;;9.50;4.00;;;;;;;13.79;100.00;101708.13;5031440;28;20222;-48
2023/07/18 00:07:43;;;;;;;8.40;3.38;;;;;;;13.69;100.00;101705.88;5027690;28;20180;-48
2023/07/18 00:10:09;;;;;;;6.32;3.30;;;;;;;13.70;100.00;101711.16;5011331;28;20173;-47
2023/07/18 00:12:36;;;;;;;13.13;3.63;;;;;;;13.69;100.00;101709.44;5020436;28;20587;-48
2023/07/18 00:15:03;;;;;;;11.35;3.47;;;;;;;13.70;100.00;101700.41;5011353;28;20213;-49
2023/07/18 00:17:31;;;;;;;8.20;3.55;;;;;;;13.63;100.00;101711.47;5017119;28;20188;-49
2023/07/18 00:19:58;;;;;;;6.88;3.58;;;;;;;13.58;100.00;101709.81;5012620;28;20188;-47
2023/07/18 00:22:24;;;;;;;13.63;3.55;;;;;;;13.67;100.00;101708.59;5011192;28;20169;-48
2023/07/18 00:24:49;;;;;;;9.20;3.55;;;;;;;13.57;100.00;101709.88;5011118;28;20195;-49
2023/07/18 00:27:15;;;;;;;8.13;3.20;;;;;;;13.50;100.00;101708.34;5010312;28;20160;-48
2023/07/18 00:29:42;;;;;;;9.93;3.67;;;;;;;13.64;100.00;101713.22;5010926;28;20269;-46
2023/07/18 00:32:07;;;;;;;9.80;3.50;;;;;;;13.55;100.00;101712.59;5009172;28;20172;-47
2023/07/18 00:34:33;;;;;;;11.15;3.40;;;;;;;13.52;100.00;101717.25;5007764;28;20279;-47
2023/07/18 00:36:58;;;;;;;8.93;3.47;;;;;;;13.54;100.00;101720.75;5016256;28;20606;-47
2023/07/18 00:39:24;;;;;;;10.70;4.15;;;;;;;13.59;100.00;101716.09;5015095;28;20624;-47
2023/07/18 00:41:49;;;;;;;6.93;3.28;;;;;;;13.48;100.00;101716.47;5013749;28;20176;-48
2023/07/18 00:44:15;;;;;;;12.32;3.70;;;;;;;13.53;100.00;101706.41;5012018;28;20642;-46
2023/07/18 00:46:41;;;;;;;13.48;4.82;;;;;;;13.46;100.00;101709.38;5015282;28;20351;-44
2023/07/18 00:49:07;;;;;;;8.43;3.55;;;;;;;13.48;100.00;101704.84;5011966;28;20561;-46
2023/07/18 00:51:32;;;;;;;9.50;3.95;;;;;;;13.35;100.00;101712.47;5009219;28;20181;-47
2023/07/18 00:53:59;;;;;;;10.88;3.90;;;;;;;13.42;100.00;101714.00;5008722;28;20184;-45
2023/07/18 00:56:24;;;;;;;9.45;3.80;;;;;;;13.38;100.00;101715.03;5008775;28;20679;-47
2023/07/18 00:58:52;;;;;;;9.10;4.43;;;;;;;13.38;100.00;101717.72;5010141;28;20176;-45
2023/07/18 01:03:53;;;;;;;8.95;4.10;;;;;;;13.30;100.00;101711.75;5008433;28;20202;-47
2023/07/18 01:06:18;;;;;;;10.82;3.65;;;;;;;13.28;100.00;101718.97;5006982;28;20208;-45
2023/07/18 01:08:44;;;;;;;6.72;3.50;;;;;;;13.31;100.00;101706.28;5009614;28;20187;-47
2023/07/18 01:11:09;;;;;;;10.48;3.85;;;;;;;13.29;100.00;101715.38;5007070;28;20185;-45
2023/07/18 01:13:35;;;;;;;12.02;4.30;;;;;;;13.23;100.00;101712.84;5008217;28;20179;-46
2023/07/18 01:16:01;;;;;;;6.78;3.40;;;;;;;13.24;100.00;101715.50;5006769;28;20215;-44
2023/07/18 01:18:27;;;;;;;6.90;3.95;;;;;;;13.27;100.00;101714.50;5002557;28;20189;-46
2023/07/18 01:20:54;;;;;;;10.98;4.18;;;;;;;13.30;100.00;101719.84;5007330;28;20175;-45
2023/07/18 01:23:21;;;;;;;10.27;4.03;;;;;;;13.23;100.00;101711.06;5003904;28;20548;-48
2023/07/18 01:25:47;;;;;;;10.73;4.20;;;;;;;13.29;100.00;101709.97;5002273;28;20196;-47
2023/07/18 01:28:12;;;;;;;7.68;4.00;;;;;;;13.32;100.00;101712.59;4988861;28;20185;-46
2023/07/18 01:30:38;;;;;;;9.10;4.22;;;;;;;13.29;100.00;101716.22;5007352;28;20189;-44
2023/07/18 01:33:03;;;;;;;11.23;4.78;;;;;;;13.27;100.00;101711.81;5004970;28;20168;-44
2023/07/18 01:35:29;;;;;;;9.82;5.07;;;;;;;13.20;100.00;101706.63;5005741;28;20213;-47
2023/07/18 01:37:56;;;;;;;10.40;4.70;;;;;;;13.25;100.00;101700.22;5007642;28;20702;-46
2023/07/18 01:40:22;;;;;;;13.52;4.57;;;;;;;13.18;100.00;101702.25;5004506;28;20212;-46
2023/07/18 01:42:53;;;;;;;9.27;4.47;;;;;;;13.17;100.00;101698.69;5007776;28;20231;-43
2023/07/18 01:45:19;;;;;;;13.85;4.72;;;;;;;13.12;100.00;101705.19;5006601;28;20207;-48
2023/07/18 01:47:46;;;;;;;10.82;5.60;;;;;;;13.10;100.00;101701.66;4999211;28;20282;-45
2023/07/18 01:50:12;;;;;;;8.13;4.50;;;;;;;13.14;100.00;101703.28;5002574;28;20180;-47
2023/07/18 01:52:37;;;;;;;7.18;4.20;;;;;;;13.20;100.00;101697.69;5001877;28;20172;-47
2023/07/18 01:55:05;;;;;;;10.82;4.75;;;;;;;13.18;100.00;101689.69;4998981;28;20204;-44
2023/07/18 01:57:31;;;;;;;12.25;4.72;;;;;;;13.18;100.00;101700.47;5007381;28;20185;-47
2023/07/18 02:00:00;;;;;;;9.73;4.82;;;;;;;13.14;100.00;101704.19;5003212;28;20243;-45
2023/07/18 02:02:28;;;;;;;13.82;5.65;;;;;;;13.00;100.00;101695.72;5000984;28;20263;-45
2023/07/18 02:04:53;;;;;;;11.18;5.13;;;;;;;13.01;100.00;101697.47;5006058;28;20219;-47
2023/07/18 02:07:19;;;;;;;16.13;5.22;;;;;;;12.99;100.00;101702.91;5006861;28;20173;-43
2023/07/18 02:09:45;;;;;;;11.45;5.50;;;;;;;13.03;100.00;101702.78;5004698;28;20212;-48
2023/07/18 02:12:10;;;;;;;9.95;5.05;;;;;;;12.99;100.00;101702.91;5004327;28;20260;-44
2023/07/18 02:14:36;;;;;;;12.90;5.32;;;;;;;12.95;100.00;101700.38;5002570;28;20189;-48
2023/07/18 02:17:03;;;;;;;9.95;4.90;;;;;;;13.08;100.00;101711.59;5003731;28;20287;-47
2023/07/18 02:19:28;;;;;;;8.63;4.90;;;;;;;13.11;100.00;101716.84;5006988;28;20417;-47
2023/07/18 02:21:54;;;;;;;10.13;5.40;;;;;;;13.10;100.00;101717.81;5009129;28;20267;-47
2023/07/18 02:24:19;;;;;;;8.98;5.05;;;;;;;13.08;100.00;101722.38;5003445;28;20186;-44
2023/07/18 02:26:45;;;;;;;11.52;5.70;;;;;;;12.98;100.00;101711.03;5011338;28;21109;-45
2023/07/18 02:29:10;;;;;;;8.82;4.53;;;;;;;12.98;100.00;101714.56;5006186;28;20223;-48
2023/07/18 02:31:37;;;;;;;12.32;5.40;;;;;;;13.04;100.00;101720.69;5003947;28;20678;-46
2023/07/18 02:34:04;;;;;;;14.40;6.20;;;;;;;12.92;100.00;101713.91;5011000;28;20659;-47
2023/07/18 02:36:30;;;;;;;14.43;5.68;;;;;;;12.91;100.00;101718.41;5016747;28;20219;-47
2023/07/18 02:38:55;;;;;;;13.93;5.53;;;;;;;12.90;100.00;101718.47;5011959;28;20188;-44
2023/07/18 02:41:22;;;;;;;9.70;5.20;;;;;;;12.87;100.00;101718.56;5019810;28;20176;-45
2023/07/18 02:43:47;;;;;;;11.02;5.20;;;;;;;12.89;100.00;101716.72;5010637;28;20552;-48
2023/07/18 02:46:13;;;;;;;16.25;5.50;;;;;;;12.89;100.00;101722.09;5007148;28;20254;-47
2023/07/18 02:48:39;;;;;;;11.07;5.10;;;;;;;12.92;100.00;101714.81;5011481;28;20180;-45
2023/07/18 02:51:05;;;;;;;12.38;6.22;;;;;;;12.95;100.00;101713.81;5004590;28;20226;-45
2023/07/18 02:53:30;;;;;;;13.77;5.57;;;;;;;12.91;100.00;101726.50;4993358;28;20264;-48
2023/07/18 02:55:56;;;;;;;11.73;5.30;;;;;;;12.87;100.00;101730.22;5009451;28;20208;-47
2023/07/18 02:58:22;;;;;;;10.80;4.93;;;;;;;12.89;100.00;101722.09;5012001;28;20223;-45
2023/07/18 03:00:50;;;;;;;9.38;5.55;;;;;;;12.93;100.00;101729.13;5014837;28;20184;-47
2023/07/18 03:03:16;;;;;;;12.98;5.10;;;;;;;12.91;100.00;101722.94;5002764;28;20188;-47
2023/07/18 03:05:42;;;;;;;15.23;5.60;;;;;;;12.87;100.00;101723.97;5010255;28;20204;-44
2023/07/18 03:08:07;;;;;;;11.23;4.82;;;;;;;12.96;100.00;101731.72;5007853;28;20685;-47
2023/07/18 03:10:33;;;;;;;15.60;5.80;;;;;;;12.98;100.00;101730.72;5011006;28;20478;-46
2023/07/18 03:12:58;;;;;;;12.65;5.40;;;;;;;12.92;100.00;101722.88;5005899;28;20555;-44
2023/07/18 03:15:26;;;;;;;15.23;5.70;;;;;;;12.89;100.00;101725.66;5008870;28;20805;-46
2023/07/18 03:17:52;;;;;;;8.77;4.45;;;;;;;12.94;100.00;101733.56;5016733;28;20193;-45
2023/07/18 03:20:19;;;;;;;8.93;5.00;;;;;;;12.98;100.00;101721.78;5014300;28;20660;-44
2023/07/18 03:22:49;;;;;;;14.25;5.80;;;;;;;12.97;100.00;101730.78;5006385;28;20184;-48
2023/07/18 03:25:16;;;;;;;9.52;4.75;;;;;;;12.99;100.00;101728.94;5011547;28;20259;-44
2023/07/18 03:27:42;;;;;;;11.98;5.10;;;;;;;13.01;100.00;101720.78;5012912;28;20192;-44
2023/07/18 03:30:10;;;;;;;11.60;5.05;;;;;;;12.99;100.00;101715.47;5008455;28;20219;-45
2023/07/18 03:32:37;;;;;;;15.88;5.07;;;;;;;12.97;100.00;101723.59;5010149;28;20615;-45
2023/07/18 03:35:06;;;;;;;9.50;4.10;;;;;;;13.05;100.00;101730.53;5015867;28;20294;-46
2023/07/18 03:37:32;;;;;;;11.90;4.88;;;;;;;13.03;100.00;101719.84;5013346;28;20298;-44
2023/07/18 03:39:58;;;;;;;12.02;4.63;;;;;;;12.96;100.00;101720.94;5014499;28;20246;-44
2023/07/18 03:42:24;;;;;;;12.00;4.53;;;;;;;13.03;100.00;101716.22;5012071;28;20176;-48
2023/07/18 03:44:49;;;;;;;8.15;4.50;;;;;;;12.96;100.00;101710.19;5020246;28;20181;-48
2023/07/18 03:47:15;;;;;;;11.98;4.90;;;;;;;12.96;100.00;101716.44;5009704;28;20268;-45
2023/07/18 03:49:40;;;;;;;10.55;4.72;;;;;;;13.02;100.00;101707.28;5009842;28;20197;-46
2023/07/18 03:52:06;;;;;;;12.32;4.40;;;;;;;13.01;100.00;101712.72;5007983;28;20544;-47
2023/07/18 03:54:34;;;;;;;11.77;4.57;;;;;;;13.05;100.00;101715.25;5011940;28;20189;-47
2023/07/18 03:57:00;;;;;;;9.93;4.32;;;;;;;13.04;100.00;101710.81;5005119;28;20205;-45
2023/07/18 03:59:26;;;;;;;9.05;4.90;;;;;;;13.05;100.00;101700.94;5016049;28;20203;-45
2023/07/18 04:01:54;;;;;;;12.32;4.70;;;;;;;12.98;100.00;101714.56;5011953;28;20317;-48
2023/07/18 04:04:19;;;;;;;6.40;3.80;;;;;;;13.14;100.00;101712.25;5024783;28;20405;-48
2023/07/18 04:06:45;;;;;;;10.35;4.75;;;;;;;13.13;100.00;101710.50;5021093;28;20750;-46
2023/07/18 04:09:11;;;;;;;10.60;4.53;;;;;;;13.03;100.00;101709.06;5007867;28;20188;-48
2023/07/18 04:11:38;;;;;;;14.88;5.32;;;;;;;13.10;100.00;101707.91;5009335;28;20185;-47
2023/07/18 04:14:04;;;;;;;9.40;4.68;;;;;;;13.18;100.00;101716.59;5003347;28;20305;-47
2023/07/18 04:16:29;;;;;;;13.10;4.90;;;;;;;13.17;100.00;101709.44;5008707;28;20251;-48
2023/07/18 04:18:55;;;;;;;12.23;5.15;;;;;;;13.18;100.00;101713.91;5010880;28;20670;-47
2023/07/18 04:21:21;;;;;;;8.35;4.22;;;;;;;13.27;100.00;101711.81;5003739;28;20196;-47
2023/07/18 04:23:48;;;;;;;10.63;4.38;;;;;;;13.25;100.00;101716.38;5008882;28;20792;-46
2023/07/18 04:26:13;;;;;;;10.55;5.47;;;;;;;13.22;100.00;101716.50;5003725;28;20276;-45
2023/07/18 04:28:39;;;;;;;13.57;4.95;;;;;;;13.31;100.00;101714.38;5007618;28;20264;-45
2023/07/18 04:31:06;;;;;;;11.75;4.85;;;;;;;13.34;100.00;101716.09;5007225;28;20208;-46
2023/07/18 04:33:36;;;;;;;14.82;4.97;;;;;;;13.34;100.00;101716.09;5006044;28;20191;-44
2023/07/18 04:36:04;;;;;;;9.95;4.78;;;;;;;13.41;100.00;101722.16;5008499;28;20204;-47
2023/07/18 04:38:30;;;;;;;10.75;5.07;;;;;;;13.44;100.00;101722.88;5009734;28;20185;-48
2023/07/18 04:40:56;;;;;;;8.10;4.63;;;;;;;13.45;100.00;101711.22;5006665;28;20682;-48
2023/07/18 04:43:21;;;;;;;15.10;5.65;;;;;;;13.48;100.00;101726.38;5009340;28;20640;-46
2023/07/18 04:45:47;;;;;;;11.48;5.10;;;;;;;13.59;100.00;101713.38;5009291;28;20635;-44
2023/07/18 04:48:14;;;;;;;14.35;4.90;;;;;;;13.70;100.00;101718.38;5012919;28;20185;-45
2023/07/18 04:50:45;;;;;;;13.57;4.95;;;;;;;13.74;100.00;101725.41;5012462;28;20600;-47
2023/07/18 04:53:12;;;;;;;10.73;4.70;;;;;;;13.82;100.00;101720.63;5004198;28;20635;-45
2023/07/18 04:55:38;;;;;;;11.18;4.38;;;;;;;13.96;100.00;101723.66;5006082;28;20224;-45
2023/07/18 04:58:06;;;;;;;10.00;4.97;;;;;;;13.99;100.00;101720.88;5008972;28;20185;-47
2023/07/18 05:00:33;;;;;;;11.70;5.07;;;;;;;14.12;100.00;101725.75;5010406;28;20172;-49
2023/07/18 05:02:59;;;;;;;12.43;5.10;;;;;;;14.15;100.00;101718.44;5021700;22;20263;-44
2023/07/18 05:05:28;;;;;;;9.93;4.97;;;;;;;14.31;100.00;101710.63;5019254;28;20227;-46
2023/07/18 05:07:55;;;;;;;10.60;4.55;;;;;;;14.56;100.00;101720.47;5014944;28;20668;-48
2023/07/18 05:10:24;;;;;;;11.52;4.43;;;;;;;14.57;100.00;101719.53;5017981;28;20180;-45
2023/07/18 05:12:52;;;;;;;5.97;3.70;;;;;;;14.78;100.00;101715.97;5017265;28;20654;-44
2023/07/18 05:15:18;;;;;;;10.25;4.35;;;;;;;14.80;100.00;101713.19;5027540;28;20239;-46
2023/07/18 05:17:43;;;;;;;10.13;4.03;;;;;;;14.87;100.00;101711.09;5022450;28;20184;-44
2023/07/18 05:20:12;;;;;;;10.45;4.65;;;;;;;15.07;100.00;101721.06;5027004;28;20185;-48
2023/07/18 05:22:39;;;;;;;12.52;4.15;;;;;;;15.11;100.00;101717.28;5010826;28;20200;-44
2023/07/18 05:25:07;;;;;;;8.27;4.20;;;;;;;15.12;100.00;101711.81;5011724;28;20209;-45
2023/07/18 05:27:32;;;;;;;7.75;4.18;;;;;;;15.07;100.00;101715.69;5015701;28;20646;-44
2023/07/18 05:29:58;;;;;;;7.40;4.25;;;;;;;15.03;100.00;101723.00;5022231;28;20215;-44
2023/07/18 05:32:23;;;;;;;8.27;3.80;;;;;;;15.03;100.00;101714.91;5030306;28;20660;-52
2023/07/18 05:34:51;;;;;;;7.47;4.38;;;;;;;15.01;100.00;101712.28;5021775;28;20184;-44
2023/07/18 05:37:17;;;;;;;8.25;4.10;;;;;;;15.14;100.00;101717.16;5018254;28;20200;-42
2023/07/18 05:39:43;;;;;;;9.82;3.90;;;;;;;15.04;100.00;101717.56;5029552;28;20188;-44
2023/07/18 05:42:09;;;;;;;6.90;3.70;;;;;;;15.17;100.00;101707.09;5027651;28;20195;-44
2023/07/18 05:44:34;;;;;;;16.20;4.47;;;;;;;15.28;100.00;101708.44;5029670;28;20192;-48
2023/07/18 05:47:00;;;;;;;8.45;4.20;;;;;;;15.37;100.00;101706.25;5013429;28;20273;-49
2023/07/18 05:49:29;;;;;;;10.45;3.95;;;;;;;15.37;100.00;101713.44;5016656;28;20181;-49
2023/07/18 05:51:55;;;;;;;8.13;3.95;;;;;;;15.47;100.00;101709.38;5013402;28;20192;-48
2023/07/18 05:54:20;;;;;;;10.27;4.13;;;;;;;15.59;100.00;101711.56;5015714;28;20189;-48
2023/07/18 05:56:47;;;;;;;9.70;3.50;;;;;;;15.54;100.00;101705.47;5015142;28;20620;-47
2023/07/18 05:59:12;;;;;;;11.50;3.92;;;;;;;15.54;100.00;101710.88;5021133;28;20263;-45
2023/07/18 06:01:37;;;;;;;9.45;3.88;;;;;;;15.50;100.00;101711.06;5016431;28;20646;-45
2023/07/18 06:04:03;;;;;;;9.20;3.97;;;;;;;15.53;100.00;101703.72;5012886;28;20253;-44
2023/07/18 06:06:30;;;;;;;8.68;4.20;;;;;;;15.38;100.00;101713.38;5021432;28;20673;-44
2023/07/18 06:08:56;;;;;;;9.15;3.90;;;;;;;15.57;100.00;101699.94;5014179;28;20180;-45
2023/07/18 06:11:21;;;;;;;7.88;3.78;;;;;;;15.85;100.00;101714.91;5021122;28;20233;-44
2023/07/18 06:13:49;;;;;;;9.25;4.07;;;;;;;15.96;100.00;101707.19;5017824;28;20183;-45
2023/07/18 06:16:14;;;;;;;10.73;3.28;;;;;;;16.25;100.00;101702.22;5014386;28;20224;-44
2023/07/18 06:18:41;;;;;;;9.13;4.00;;;;;;;16.45;100.00;101710.25;5016107;28;20858;-46
2023/07/18 06:21:07;;;;;;;10.40;4.28;;;;;;;16.53;100.00;101703.56;5017336;28;20208;-45
2023/07/18 06:23:33;;;;;;;8.60;4.55;;;;;;;16.87;100.00;101705.50;5015421;28;20235;-46
2023/07/18 06:25:58;;;;;;;18.73;4.18;;;;;;;16.95;100.00;101694.31;5016053;28;20211;-45
2023/07/18 06:28:24;;;;;;;6.85;3.40;;;;;;;17.23;100.00;101699.16;5016767;28;20603;-45
2023/07/18 06:30:54;;;;;;;10.02;3.53;;;;;;;17.54;100.00;101701.13;5017861;28;20544;-45
2023/07/18 06:33:21;;;;;;;8.50;3.42;;;;;;;17.58;100.00;101691.88;5017525;28;20334;-46
2023/07/18 06:35:57;;;;;;;9.98;4.28;;;;;;;17.71;100.00;101692.97;5021068;28;20200;-46
2023/07/18 06:38:23;;;;;;;6.90;3.25;;;;;;;18.01;99.79;101683.25;5017192;28;20215;-45
2023/07/18 06:40:52;;;;;;;9.43;3.38;;;;;;;17.96;98.05;101688.94;5013926;28;20639;-44
2023/07/18 06:43:18;;;;;;;10.13;3.55;;;;;;;17.86;96.63;101691.28;5016302;28;20262;-47
2023/07/18 06:45:45;;;;;;;10.88;3.20;;;;;;;17.82;96.46;101696.94;5018686;28;20284;-45
2023/07/18 06:48:11;;;;;;;5.68;3.22;;;;;;;18.07;95.31;101699.19;5018575;28;20183;-45
2023/07/18 06:50:37;;;;;;;6.80;2.90;;;;;;;17.80;94.44;101685.28;5019936;28;20192;-45
2023/07/18 06:53:03;;;;;;;9.02;3.08;;;;;;;17.97;94.05;101695.22;5018493;28;20270;-45
2023/07/18 06:55:29;;;;;;;6.63;3.03;;;;;;;18.08;93.32;101684.66;5020987;28;20212;-45
2023/07/18 06:57:55;;;;;;;10.63;3.72;;;;;;;18.29;92.58;101688.00;5016344;28;20195;-46
2023/07/18 07:00:22;;;;;;;10.80;4.10;;;;;;;18.45;91.78;101682.56;5015023;28;20626;-47
2023/07/18 07:02:47;;;;;;;8.48;3.80;;;;;;;18.16;90.65;101681.53;5015461;28;20332;-45
2023/07/18 07:05:14;;;;;;;7.90;3.20;;;;;;;17.95;90.65;101673.66;5017356;28;20196;-45
2023/07/18 07:07:40;;;;;;;7.78;3.75;;;;;;;18.09;91.00;101676.44;5015755;28;20196;-46
2023/07/18 07:10:08;;;;;;;22.77;3.90;;;;;;;17.89;91.88;101679.41;5014950;28;20176;-45
2023/07/18 07:12:34;;;;;;;10.10;3.67;;;;;;;18.07;91.92;101682.91;5013900;28;20196;-44
2023/07/18 07:15:00;;;;;;;8.23;2.88;;;;;;;18.30;91.76;101684.31;5016223;28;20196;-44
2023/07/18 07:17:26;;;;;;;7.65;3.33;;;;;;;18.45;90.86;101683.41;5021440;28;20172;-45
2023/07/18 07:19:52;;;;;;;7.68;2.67;;;;;;;18.36;89.82;101681.25;5017680;28;20242;-45
2023/07/18 07:22:18;;;;;;;7.95;3.20;;;;;;;18.81;88.97;101679.56;5018965;28;20236;-44
2023/07/18 07:24:43;;;;;;;8.07;3.00;;;;;;;19.08;87.32;101671.59;5013720;28;20196;-46
2023/07/18 07:27:09;;;;;;;6.85;2.90;;;;;;;18.77;86.77;101668.97;5019738;28;20598;-45
2023/07/18 07:29:39;;;;;;;6.68;3.28;;;;;;;18.65;86.48;101668.72;5017455;28;20230;-45
2023/07/18 07:32:05;;;;;;;9.85;3.03;;;;;;;18.71;86.90;101678.31;5016947;28;20185;-46
2023/07/18 07:34:31;;;;;;;8.57;3.38;;;;;;;18.17;88.14;101672.41;5015118;28;20256;-45
2023/07/18 07:36:56;;;;;;;9.52;3.42;;;;;;;18.31;88.94;101676.09;5014437;28;20287;-44
2023/07/18 07:39:22;;;;;;;7.57;2.80;;;;;;;18.87;89.02;101679.22;5025264;28;20212;-44
2023/07/18 07:41:48;;;;;;;6.93;3.33;;;;;;;19.52;87.11;101677.97;5020571;28;20428;-44
2023/07/18 07:44:13;;;;;;;11.57;3.20;;;;;;;19.26;85.14;101668.72;5021795;28;20196;-44
2023/07/18 07:46:39;;;;;;;7.20;2.80;;;;;;;19.44;83.55;101662.16;5024108;28;20253;-46
2023/07/18 07:49:04;;;;;;;8.82;2.83;;;;;;;19.62;82.99;101665.56;5021263;28;20565;-45
2023/07/18 07:51:30;;;;;;;6.07;2.22;;;;;;;19.00;82.63;101668.50;5021067;28;20836;-45
2023/07/18 07:53:58;;;;;;;10.48;2.80;;;;;;;19.20;84.11;101675.44;5021658;28;20290;-45
2023/07/18 07:56:23;;;;;;;6.68;3.05;;;;;;;19.32;83.51;101682.81;5021222;28;20196;-44
2023/07/18 07:58:49;;;;;;;6.32;3.13;;;;;;;19.39;82.99;101675.16;5016255;28;20186;-44
2023/07/18 08:01:14;;;;;;;5.78;3.08;;;;;;;19.06;83.26;101678.09;5015149;28;20259;-45
2023/07/18 08:03:40;;;;;;;8.07;2.95;;;;;;;19.28;83.37;101673.09;5017901;28;20242;-45
2023/07/18 08:06:06;;;;;;;7.57;2.97;;;;;;;19.19;83.31;101667.38;5016756;28;20208;-44
2023/07/18 08:08:31;;;;;;;6.63;2.88;;;;;;;19.58;83.12;101674.03;5020806;28;20559;-45
2023/07/18 08:10:57;;;;;;;7.10;2.65;;;;;;;18.85;82.57;101670.28;5021655;28;20185;-45
2023/07/18 08:13:22;;;;;;;4.80;1.77;;;;;;;19.01;80.93;101663.94;5015486;28;20235;-45
2023/07/18 08:15:48;;;;;;;3.05;1.90;;;;;;;19.98;78.42;101653.34;5022722;28;20202;-46
2023/07/18 08:18:13;;;;;;;4.80;2.05;;;;;;;20.55;76.10;101649.59;5020063;28;20184;-45
2023/07/18 08:20:39;;;;;;;3.75;2.05;;;;;;;20.04;74.31;101643.91;5019948;28;20180;-45
2023/07/18 08:23:05;;;;;;;4.50;2.25;;;;;;;20.51;73.20;101635.34;5016261;28;20180;-46
2023/07/18 08:25:30;;;;;;;3.47;1.83;;;;;;;20.33;71.60;101617.50;5017056;28;20291;-44
2023/07/18 08:27:56;;;;;;;3.38;1.70;;;;;;;21.01;69.78;101610.19;5019363;28;20706;-45
2023/07/18 08:30:22;;;;;;;3.67;1.60;;;;;;;20.38;68.27;101604.47;5017358;28;20227;-47
2023/07/18 08:32:48;;;;;;;4.38;1.60;;;;;;;20.81;66.97;101598.84;5016858;28;20173;-42
2023/07/18 08:35:14;;;;;;;4.55;1.40;;;;;;;20.49;66.62;101591.00;5020722;28;20222;-42
2023/07/18 08:37:40;;;;;;;5.40;1.65;;;;;;;20.63;66.62;101605.56;5026366;28;20226;-43
2023/07/18 08:40:07;;;;;;;4.50;2.13;;;;;;;19.74;68.34;101602.31;5016203;28;20200;-43
2023/07/18 08:42:33;;;;;;;5.30;1.98;;;;;;;19.25;70.96;101634.41;5018588;28;20192;-42
2023/07/18 08:44:59;;;;;;;6.47;1.85;;;;;;;19.21;71.55;101632.81;5021715;28;20199;-42
2023/07/18 08:47:25;;;;;;;4.68;2.08;;;;;;;19.58;72.44;101625.09;5019568;28;20234;-43
2023/07/18 08:49:52;;;;;;;7.10;1.83;;;;;;;20.31;71.37;101617.63;5017427;28;20596;-44
2023/07/18 08:52:18;;;;;;;8.73;2.15;;;;;;;20.11;71.07;101604.44;5015946;28;20237;-44
2023/07/18 08:54:43;;;;;;;4.13;1.80;;;;;;;19.25;71.35;101608.09;5025431;28;20184;-44
2023/07/18 08:57:11;;;;;;;5.15;2.00;;;;;;;19.76;73.22;101618.50;5024378;28;20206;-42
2023/07/18 08:59:39;;;;;;;3.80;2.25;;;;;;;20.45;72.33;101600.34;5019436;28;20548;-43
2023/07/18 09:02:05;;;;;;;7.88;2.30;;;;;;;20.84;71.51;101597.75;5017974;28;20180;-42
2023/07/18 09:04:31;;;;;;;4.65;1.67;;;;;;;20.83;69.25;101583.25;5023238;28;20190;-42
2023/07/18 09:07:01;;;;;;;3.83;1.67;;;;;;;20.65;69.34;101592.72;5019425;28;20232;-44
2023/07/18 09:09:27;;;;;;;5.20;1.77;;;;;;;20.11;68.99;101591.72;5019878;28;20282;-41
2023/07/18 09:11:54;;;;;;;6.55;2.33;;;;;;;19.71;71.57;101597.03;5019121;28;20196;-43
2023/07/18 09:14:31;;;;;;;11.90;2.97;;;;;;;19.26;72.99;101614.38;5019734;28;20262;-43
2023/07/18 09:16:59;;;;;;;4.82;2.33;;;;;;;18.84;75.26;101622.34;5021590;28;20207;-42
2023/07/18 09:19:42;;;;;;;8.68;2.40;;;;;;;18.83;76.93;101636.06;5025047;28;20645;-42
2023/07/18 09:22:10;;;;;;;9.68;2.35;;;;;;;18.44;79.89;101649.13;5018500;28;20180;-42
2023/07/18 09:24:36;;;;;;;6.03;2.22;;;;;;;18.49;83.51;101649.72;5014636;28;20180;-44
2023/07/18 09:27:28;;;;;;;9.60;1.90;;;;;;;18.31;84.11;101650.81;5020458;28;20200;-41
2023/07/18 09:29:55;;;;;;;4.05;2.22;;;;;;;18.43;84.72;101649.22;5013836;28;20232;-42
2023/07/18 09:32:23;;;;;;;4.95;1.83;;;;;;;18.33;83.38;101638.03;5020207;28;20168;-43
2023/07/18 09:34:53;;;;;;;5.28;1.95;;;;;;;18.66;82.52;101643.31;5013155;28;20184;-43
2023/07/18 09:37:18;;;;;;;7.05;2.08;;;;;;;19.32;82.29;101639.34;5014462;28;20298;-44
2023/07/18 09:39:46;;;;;;;4.07;1.58;;;;;;;19.55;78.78;101609.84;5018507;28;20661;-43
2023/07/18 09:42:12;;;;;;;4.30;1.48;;;;;;;19.20;77.73;101618.38;5020586;28;20554;-44
2023/07/18 09:44:40;;;;;;;5.93;1.60;;;;;;;19.40;77.58;101622.56;5017900;28;20683;-43
2023/07/18 09:47:09;;;;;;;4.00;1.90;;;;;;;19.36;77.66;101626.44;5017154;28;20172;-42
2023/07/18 09:49:36;;;;;;;5.10;2.00;;;;;;;19.41;76.99;101628.88;5018083;28;20614;-43
2023/07/18 09:52:04;;;;;;;5.50;2.10;;;;;;;20.17;75.15;101614.94;5015845;28;20634;-43
2023/07/18 09:54:33;;;;;;;3.45;1.80;;;;;;;21.02;73.16;101601.06;5016732;28;20193;-43
2023/07/18 09:57:04;;;;;;;4.32;1.70;;;;;;;20.84;71.46;101590.47;5019083;28;20200;-42
2023/07/18 09:59:30;;;;;;;5.20;1.52;;;;;;;21.52;69.00;101583.00;5016074;28;20219;-43
2023/07/18 10:01:56;;;;;;;4.35;1.55;;;;;;;21.95;67.79;101564.34;5022874;28;20580;-43
2023/07/18 10:04:22;;;;;;;4.93;1.70;;;;;;;21.13;65.89;101554.84;5014593;28;20592;-44
2023/07/18 10:06:49;;;;;;;3.63;1.40;;;;;;;20.70;66.59;101556.00;5016111;28;20752;-43
2023/07/18 10:09:17;;;;;;;2.55;1.75;;;;;;;21.34;67.26;101575.13;5022561;28;20180;-43
2023/07/18 10:11:57;;;;;;;4.63;1.48;;;;;;;20.86;66.12;101550.38;5019172;28;20197;-44
2023/07/18 10:14:23;;;;;;;2.58;1.20;;;;;;;21.30;63.91;101529.13;5020455;28;20275;-42
2023/07/18 10:16:54;;;;;;;4.07;1.17;;;;;;;21.68;62.41;101518.16;5022174;28;20291;-42
2023/07/18 10:19:23;;;;;;;3.15;1.20;;;;;;;21.53;61.76;101519.28;5017777;28;20626;-43
2023/07/18 10:21:51;;;;;;;3.28;1.33;;;;;;;21.80;62.29;101521.84;5017156;28;20230;-42
2023/07/18 10:24:31;;;;;;;2.13;1.00;;;;;;;22.48;61.83;101530.34;5015730;28;20167;-42
2023/07/18 10:27:00;;;;;;;2.90;1.17;;;;;;;21.63;59.94;101504.00;5016251;28;20752;-42
2023/07/18 10:29:32;;;;;;;2.92;1.23;;;;;;;21.07;60.36;101517.13;5019293;28;20194;-46
2023/07/18 10:32:00;;;;;;;3.90;1.08;;;;;;;21.10;60.65;101530.53;5019444;28;20642;-46
2023/07/18 10:34:25;;;;;;;1.58;0.82;;;;;;;21.11;60.93;101516.81;5015055;28;20186;-45
2023/07/18 10:37:00;;;;;;;1.63;0.95;;;;;;;21.51;60.05;101507.59;5020386;28;20204;-46
2023/07/18 10:39:43;;;;;;;2.17;1.20;;;;;;;21.65;60.43;101512.06;5013912;28;20680;-48
2023/07/18 10:42:28;;;;;;;1.75;1.05;;;;;;;22.05;60.12;101511.78;5011430;28;20164;-47
2023/07/18 10:45:04;;;;;;;2.65;1.20;;;;;;;21.40;59.70;101503.78;5012592;28;20183;-47
2023/07/18 10:47:31;;;;;;;1.98;1.00;;;;;;;21.25;58.86;101502.16;5018083;28;20489;-47
2023/07/18 10:49:57;;;;;;;1.05;0.90;;;;;;;20.19;60.60;101500.56;5019190;28;20246;-45
2023/07/18 10:52:22;;;;;;;1.83;0.90;;;;;;;20.62;61.04;101513.94;5016385;28;20303;-46
2023/07/18 10:54:50;;;;;;;5.88;1.20;;;;;;;21.63;60.63;101523.06;5015779;28;20217;-47
2023/07/18 10:57:22;;;;;;;3.03;0.95;;;;;;;21.58;59.62;101500.72;5014286;28;20569;-46
2023/07/18 10:59:47;;;;;;;1.63;1.08;;;;;;;20.73;59.38;101493.16;5021225;28;20199;-48
2023/07/18 11:02:14;;;;;;;3.30;1.10;;;;;;;20.60;60.63;101500.47;5033028;23;20173;-47
2023/07/18 11:04:39;;;;;;;4.32;1.10;;;;;;;20.71;60.66;101508.75;5004034;28;20655;-47
2023/07/18 11:07:05;;;;;;;2.85;1.15;;;;;;;20.20;61.39;101511.31;4991187;28;20311;-47
2023/07/18 11:09:31;;;;;;;2.35;1.13;;;;;;;20.25;61.97;101511.03;5007974;28;20168;-47
2023/07/18 11:11:57;;;;;;;2.08;1.10;;;;;;;20.31;62.05;101506.03;5008313;28;20680;-47
2023/07/18 11:14:23;;;;;;;3.20;0.90;;;;;;;20.48;62.36;101512.16;5004700;28;20165;-47
2023/07/18 11:16:49;;;;;;;2.67;0.90;;;;;;;21.08;61.60;101505.25;5005416;28;20569;-47